Time;durP1;ratioP1;P1;durP2;ratioP2;P2;SDS_P1;SDS_P2;PMS_P1;PMS_P2;Temp;Humidity;BMP_temperature;BMP_pressure;BME280_temperature;BME280_humidity;BME280_pressure;Samples;Min_cycle;Max_cycle;Signal;HPM_P1;HPM_P2
2024/01/17 00:00:06;;;;;;;0.90;0.90;;;3.60;96.00;;;;;;5092783;28;20475;-61
2024/01/17 00:02:32;;;;;;;0.60;0.60;;;3.50;95.90;;;;;;5092477;28;20256;-60
2024/01/17 00:04:58;;;;;;;1.90;1.07;;;3.40;96.20;;;;;;5093260;28;20251;-60
2024/01/17 00:07:24;;;;;;;1.17;0.70;;;3.30;96.60;;;;;;5093334;28;20169;-61
2024/01/17 00:09:50;;;;;;;3.42;0.98;;;3.20;96.90;;;;;;5093156;28;20211;-61
2024/01/17 00:12:16;;;;;;;2.00;1.90;;;3.10;97.80;;;;;;5092977;28;20654;-61
2024/01/17 00:14:42;;;;;;;4.10;1.70;;;3.00;97.90;;;;;;5093143;28;20192;-61
2024/01/17 00:17:08;;;;;;;0.60;0.60;;;3.10;98.20;;;;;;5092859;28;20209;-61
2024/01/17 00:19:34;;;;;;;1.08;1.00;;;3.20;98.30;;;;;;5092990;28;20204;-61
2024/01/17 00:22:00;;;;;;;1.80;1.70;;;3.30;98.10;;;;;;5092797;28;20172;-61
2024/01/17 00:24:26;;;;;;;0.90;0.90;;;3.50;97.80;;;;;;5093006;28;20176;-61
2024/01/17 00:26:52;;;;;;;0.80;0.80;;;3.60;97.70;;;;;;5092908;28;20819;-61
2024/01/17 00:29:17;;;;;;;2.47;1.87;;;3.60;97.70;;;;;;5092732;28;20575;-61
2024/01/17 00:31:43;;;;;;;1.83;1.73;;;3.70;97.60;;;;;;5092600;28;20181;-61
2024/01/17 00:34:09;;;;;;;0.50;0.50;;;3.70;97.30;;;;;;5092838;28;20569;-61
2024/01/17 00:36:34;;;;;;;1.63;1.53;;;3.90;97.20;;;;;;5092708;28;20279;-61
2024/01/17 00:39:00;;;;;;;1.80;0.87;;;3.90;96.90;;;;;;5094009;28;20168;-61
2024/01/17 00:41:25;;;;;;;1.90;1.47;;;4.00;97.10;;;;;;5092311;28;20212;-60
2024/01/17 00:43:51;;;;;;;0.70;0.70;;;4.00;97.10;;;;;;5092556;28;20165;-61
2024/01/17 00:46:17;;;;;;;1.40;1.30;;;4.00;97.10;;;;;;5092453;28;20184;-61
2024/01/17 00:48:43;;;;;;;5.45;2.05;;;4.10;97.00;;;;;;5092517;28;20173;-61
2024/01/17 00:51:09;;;;;;;1.40;1.30;;;4.10;97.00;;;;;;5092469;28;20628;-61
2024/01/17 00:53:34;;;;;;;2.93;2.63;;;4.10;97.00;;;;;;5092286;28;20169;-61
2024/01/17 00:56:00;;;;;;;0.60;0.60;;;4.20;97.00;;;;;;5092710;28;20203;-61
2024/01/17 00:58:27;;;;;;;2.63;1.50;;;4.20;97.20;;;;;;5092325;28;20222;-61
2024/01/17 01:00:52;;;;;;;0.93;0.80;;;4.10;97.30;;;;;;5091924;28;20419;-61
2024/01/17 01:03:18;;;;;;;0.50;0.50;;;4.10;97.30;;;;;;5092164;28;20180;-61
2024/01/17 01:05:45;;;;;;;4.83;2.30;;;4.20;97.40;;;;;;5092282;28;20184;-61
2024/01/17 01:08:11;;;;;;;2.58;2.38;;;4.30;97.30;;;;;;5092289;28;20184;-61
2024/01/17 01:10:37;;;;;;;1.50;1.40;;;4.30;97.30;;;;;;5091936;28;20189;-60
2024/01/17 01:13:03;;;;;;;3.17;1.93;;;4.30;97.30;;;;;;5092045;28;20629;-61
2024/01/17 01:15:28;;;;;;;1.52;1.42;;;4.30;97.20;;;;;;5092033;28;20192;-61
2024/01/17 01:17:54;;;;;;;0.90;0.90;;;4.30;97.20;;;;;;5092004;28;20164;-61
2024/01/17 01:20:19;;;;;;;0.53;0.53;;;4.20;97.20;;;;;;5091718;28;20199;-61
2024/01/17 01:22:45;;;;;;;2.10;1.20;;;4.10;97.70;;;;;;5091396;28;20547;-61
2024/01/17 01:25:11;;;;;;;0.50;0.50;;;3.90;97.90;;;;;;5091968;28;20248;-61
2024/01/17 01:27:36;;;;;;;0.63;0.63;;;3.80;98.20;;;;;;5091907;28;20749;-61
2024/01/17 01:30:02;;;;;;;1.90;1.07;;;3.80;98.60;;;;;;5091736;28;20193;-61
2024/01/17 01:32:29;;;;;;;1.20;1.10;;;3.80;98.80;;;;;;5091629;28;20211;-61
2024/01/17 01:34:54;;;;;;;2.22;0.60;;;3.90;98.80;;;;;;5091718;28;20411;-61
2024/01/17 01:37:20;;;;;;;2.20;1.27;;;4.00;98.70;;;;;;5091764;28;20688;-61
2024/01/17 01:39:46;;;;;;;1.67;1.60;;;4.10;98.50;;;;;;5091551;28;20208;-61
2024/01/17 01:42:11;;;;;;;1.10;0.90;;;4.20;98.30;;;;;;5091522;28;20625;-61
2024/01/17 01:44:37;;;;;;;1.27;1.17;;;4.30;98.20;;;;;;5091621;28;20647;-61
2024/01/17 01:47:03;;;;;;;1.60;1.40;;;4.30;98.10;;;;;;5091761;28;20165;-61
2024/01/17 01:49:30;;;;;;;1.23;0.88;;;4.30;98.30;;;;;;5091576;28;20189;-61
2024/01/17 01:51:55;;;;;;;1.52;1.42;;;4.30;97.90;;;;;;5091355;28;20754;-61
2024/01/17 01:54:22;;;;;;;0.50;0.50;;;4.30;98.00;;;;;;5091621;28;20211;-61
2024/01/17 01:56:48;;;;;;;0.75;0.73;;;4.30;98.10;;;;;;5091344;28;20192;-61
2024/01/17 01:59:19;;;;;;;1.50;0.55;;;4.40;98.10;;;;;;5091272;28;20208;-61
2024/01/17 02:01:46;;;;;;;0.50;0.50;;;4.40;98.00;;;;;;5091961;28;20165;-61
2024/01/17 02:04:12;;;;;;;0.77;0.73;;;4.40;98.10;;;;;;5091625;28;20169;-60
2024/01/17 02:06:43;;;;;;;0.40;0.40;;;4.30;98.10;;;;;;5091537;28;20546;-60
2024/01/17 02:09:09;;;;;;;0.88;0.88;;;4.30;98.30;;;;;;5091121;28;20415;-60
2024/01/17 02:11:37;;;;;;;1.00;0.77;;;4.30;98.40;;;;;;5090272;28;20179;-60
2024/01/17 02:14:02;;;;;;;0.50;0.50;;;4.20;98.60;;;;;;5091360;28;20497;-60
2024/01/17 02:16:28;;;;;;;1.13;1.13;;;4.20;98.80;;;;;;5073206;28;20204;-60
2024/01/17 02:18:54;;;;;;;0.83;0.83;;;4.30;98.90;;;;;;5091365;28;20226;-60
2024/01/17 02:21:20;;;;;;;2.63;2.20;;;4.30;98.80;;;;;;5091013;28;20430;-60
2024/01/17 02:23:52;;;;;;;1.00;1.00;;;4.30;98.70;;;;;;5091315;28;20410;-60
2024/01/17 02:26:18;;;;;;;0.77;0.50;;;4.20;98.70;;;;;;5091214;28;20419;-60
2024/01/17 02:28:44;;;;;;;6.82;0.80;;;4.30;98.80;;;;;;5091395;28;20318;-60
2024/01/17 02:31:10;;;;;;;1.73;1.73;;;4.10;98.90;;;;;;5091077;28;20640;-60
2024/01/17 02:33:36;;;;;;;1.50;1.40;;;4.20;99.10;;;;;;5091400;28;20693;-61
2024/01/17 02:36:02;;;;;;;4.13;1.25;;;4.30;99.00;;;;;;5095078;28;20193;-60
2024/01/17 02:38:28;;;;;;;1.35;1.25;;;4.30;99.00;;;;;;5095055;28;20251;-60
2024/01/17 02:40:54;;;;;;;1.83;1.73;;;4.30;98.90;;;;;;5094504;28;20292;-60
2024/01/17 02:43:20;;;;;;;1.73;1.67;;;4.30;98.90;;;;;;5094979;28;20180;-60
2024/01/17 02:45:45;;;;;;;0.50;0.50;;;4.30;98.90;;;;;;5094938;28;20184;-61
2024/01/17 02:48:11;;;;;;;1.83;1.73;;;4.30;99.00;;;;;;5094822;28;20173;-60
2024/01/17 02:50:39;;;;;;;0.50;0.50;;;4.30;99.10;;;;;;5094658;28;20192;-60
2024/01/17 02:53:04;;;;;;;1.30;1.30;;;4.30;99.20;;;;;;5094531;28;20173;-60
2024/01/17 02:55:30;;;;;;;1.13;0.83;;;4.40;99.10;;;;;;5094616;28;20274;-61
2024/01/17 02:57:55;;;;;;;0.60;0.60;;;4.40;99.00;;;;;;5094845;28;20551;-60
2024/01/17 03:00:21;;;;;;;1.50;1.40;;;4.30;99.00;;;;;;5094549;28;20185;-60
2024/01/17 03:02:47;;;;;;;0.75;0.75;;;4.30;99.20;;;;;;5094436;28;20186;-60
2024/01/17 03:05:13;;;;;;;1.35;1.35;;;4.30;99.20;;;;;;5094520;28;20173;-60
2024/01/17 03:07:39;;;;;;;1.90;1.80;;;4.40;99.30;;;;;;5094440;28;20534;-60
2024/01/17 03:10:05;;;;;;;1.90;1.90;;;4.40;99.20;;;;;;5094375;28;20185;-60
2024/01/17 03:12:31;;;;;;;3.55;1.95;;;4.40;99.30;;;;;;5094073;28;20668;-60
2024/01/17 03:14:57;;;;;;;0.60;0.60;;;4.20;99.20;;;;;;5094237;28;20219;-60
2024/01/17 03:17:23;;;;;;;3.90;1.33;;;4.10;99.40;;;;;;5094361;28;20174;-60
2024/01/17 03:19:48;;;;;;;0.83;0.83;;;4.20;99.50;;;;;;5094207;28;20215;-60
2024/01/17 03:22:17;;;;;;;1.47;0.80;;;4.20;99.70;;;;;;5094748;28;20248;-60
2024/01/17 03:24:45;;;;;;;0.60;0.60;;;4.20;99.80;;;;;;5093987;28;20179;-60
2024/01/17 03:27:13;;;;;;;0.40;0.40;;;4.30;99.80;;;;;;5093663;28;20556;-60
2024/01/17 03:29:39;;;;;;;0.40;0.40;;;4.20;99.90;;;;;;5093340;28;20184;-60
2024/01/17 03:32:04;;;;;;;0.40;0.40;;;4.30;99.90;;;;;;5093771;28;20263;-60
2024/01/17 03:34:30;;;;;;;0.50;0.50;;;4.30;99.90;;;;;;5093973;28;20223;-60
2024/01/17 03:36:56;;;;;;;0.50;0.50;;;4.40;99.90;;;;;;5093688;28;20439;-60
2024/01/17 03:39:22;;;;;;;0.40;0.40;;;4.50;99.90;;;;;;5093785;28;20173;-60
2024/01/17 03:41:48;;;;;;;0.37;0.37;;;4.50;99.90;;;;;;5093618;28;20184;-61
2024/01/17 03:44:13;;;;;;;0.70;0.70;;;4.50;99.90;;;;;;5093591;28;20558;-60
2024/01/17 03:46:39;;;;;;;0.63;0.63;;;4.60;99.90;;;;;;5093559;28;20180;-60
2024/01/17 03:49:04;;;;;;;0.60;0.60;;;4.60;99.90;;;;;;5093744;28;20214;-60
2024/01/17 03:51:30;;;;;;;0.50;0.50;;;4.60;99.90;;;;;;5093244;28;20623;-60
2024/01/17 03:53:56;;;;;;;0.67;0.67;;;4.60;99.90;;;;;;5093549;28;20179;-61
2024/01/17 03:56:23;;;;;;;0.90;0.65;;;4.70;99.90;;;;;;5093558;28;20215;-61
2024/01/17 03:58:48;;;;;;;0.90;0.80;;;4.70;99.90;;;;;;5092365;28;20696;-61
2024/01/17 04:01:14;;;;;;;0.30;0.30;;;4.80;99.90;;;;;;5093215;28;20251;-60
2024/01/17 04:03:40;;;;;;;0.40;0.40;;;4.70;99.90;;;;;;5093375;28;20190;-61
2024/01/17 04:06:06;;;;;;;0.30;0.30;;;4.80;99.90;;;;;;5093355;28;20208;-60
2024/01/17 04:08:32;;;;;;;1.15;1.05;;;4.80;99.90;;;;;;5093224;28;20657;-61
2024/01/17 04:10:58;;;;;;;0.50;0.50;;;4.80;99.90;;;;;;5092903;28;20197;-60
2024/01/17 04:13:23;;;;;;;0.40;0.40;;;4.80;99.90;;;;;;5093026;28;20173;-60
2024/01/17 04:15:49;;;;;;;0.60;0.60;;;4.80;99.90;;;;;;5093182;28;20443;-60
2024/01/17 04:18:15;;;;;;;0.60;0.60;;;4.90;99.90;;;;;;5093152;28;20181;-61
2024/01/17 04:20:41;;;;;;;0.40;0.40;;;4.90;99.90;;;;;;5092851;28;20185;-60
2024/01/17 04:23:08;;;;;;;0.40;0.40;;;4.90;99.90;;;;;;5092780;28;20196;-61
2024/01/17 04:25:35;;;;;;;1.13;1.02;;;5.00;99.90;;;;;;5092858;28;20181;-61
2024/01/17 04:28:04;;;;;;;0.68;0.68;;;4.90;99.90;;;;;;5092871;28;20184;-61
2024/01/17 04:30:30;;;;;;;0.95;0.40;;;4.80;99.90;;;;;;5092641;28;20250;-60
2024/01/17 04:32:55;;;;;;;0.63;0.63;;;4.80;99.90;;;;;;5092694;28;20169;-60
2024/01/17 04:35:21;;;;;;;0.40;0.40;;;4.90;99.90;;;;;;5092745;28;20193;-60
2024/01/17 04:37:47;;;;;;;0.50;0.50;;;4.90;99.90;;;;;;5092717;28;20178;-60
2024/01/17 04:40:12;;;;;;;0.80;0.80;;;5.00;99.90;;;;;;5092359;28;20291;-60
2024/01/17 04:42:39;;;;;;;1.30;1.20;;;5.00;99.90;;;;;;5092501;28;20165;-60
2024/01/17 04:45:05;;;;;;;0.73;0.65;;;4.90;99.90;;;;;;5093308;28;20234;-60
2024/01/17 04:47:31;;;;;;;0.70;0.70;;;4.90;99.90;;;;;;5092885;28;20226;-61
2024/01/17 04:49:57;;;;;;;0.95;0.95;;;5.00;99.90;;;;;;5092295;28;20189;-60
2024/01/17 04:52:23;;;;;;;0.50;0.50;;;4.90;99.80;;;;;;5092119;28;20172;-60
2024/01/17 04:54:49;;;;;;;0.50;0.50;;;4.80;99.80;;;;;;5092498;28;20810;-61
2024/01/17 04:57:15;;;;;;;0.40;0.40;;;4.80;99.90;;;;;;5091424;28;20209;-60
2024/01/17 04:59:42;;;;;;;0.40;0.40;;;4.70;99.90;;;;;;5092235;28;20188;-61
2024/01/17 05:02:08;;;;;;;0.55;0.55;;;4.90;99.90;;;;;;5091931;28;20188;-60
2024/01/17 05:04:34;;;;;;;0.40;0.40;;;5.10;99.90;;;;;;5092240;28;20166;-61
2024/01/17 05:06:59;;;;;;;0.73;0.73;;;5.20;99.90;;;;;;5092057;28;20419;-60
2024/01/17 05:09:26;;;;;;;0.40;0.40;;;5.20;99.90;;;;;;5091751;28;20183;-60
2024/01/17 05:11:52;;;;;;;0.30;0.30;;;5.30;99.90;;;;;;5091252;28;20174;-60
2024/01/17 05:14:17;;;;;;;0.40;0.40;;;5.40;99.90;;;;;;5091781;28;20173;-62
2024/01/17 05:16:43;;;;;;;0.40;0.40;;;5.50;99.90;;;;;;5092357;28;20196;-60
2024/01/17 05:19:09;;;;;;;0.30;0.30;;;5.40;99.90;;;;;;5091903;28;20589;-63
2024/01/17 05:21:34;;;;;;;0.43;0.43;;;5.50;99.90;;;;;;5091622;28;20174;-60
2024/01/17 05:24:00;;;;;;;0.80;0.80;;;5.50;99.90;;;;;;5091963;28;20633;-60
2024/01/17 05:26:25;;;;;;;0.40;0.40;;;5.50;99.90;;;;;;5091630;28;20192;-60
2024/01/17 05:28:51;;;;;;;0.40;0.40;;;5.50;99.90;;;;;;5091737;28;20261;-60
2024/01/17 05:31:17;;;;;;;0.40;0.40;;;5.40;99.90;;;;;;5091446;28;20188;-59
2024/01/17 05:33:44;;;;;;;0.75;0.75;;;5.40;99.90;;;;;;5092169;28;20728;-58
2024/01/17 05:36:10;;;;;;;0.50;0.50;;;5.40;99.90;;;;;;5091544;28;20194;-60
2024/01/17 05:38:35;;;;;;;0.43;0.43;;;5.50;99.90;;;;;;5091854;28;20703;-60
2024/01/17 05:41:01;;;;;;;0.40;0.40;;;5.60;99.90;;;;;;5126629;22;20198;-61
2024/01/17 05:43:27;;;;;;;0.40;0.40;;;5.60;99.90;;;;;;5069332;28;20231;-60
2024/01/17 05:45:57;;;;;;;0.40;0.40;;;5.50;99.90;;;;;;5070871;28;20494;-59
2024/01/17 05:48:26;;;;;;;0.40;0.40;;;5.50;99.90;;;;;;5071564;28;20173;-59
2024/01/17 05:50:54;;;;;;;0.40;0.40;;;5.50;99.90;;;;;;5071229;28;20178;-58
2024/01/17 05:53:19;;;;;;;0.40;0.40;;;5.40;99.90;;;;;;5071189;28;20176;-61
2024/01/17 05:55:45;;;;;;;0.43;0.40;;;5.50;99.90;;;;;;5071210;28;20213;-61
2024/01/17 05:58:11;;;;;;;0.40;0.40;;;5.50;99.90;;;;;;5071350;28;20170;-60
2024/01/17 06:00:37;;;;;;;1.90;0.90;;;5.50;99.90;;;;;;5071214;28;20174;-61
2024/01/17 06:03:05;;;;;;;0.40;0.40;;;5.50;99.90;;;;;;5070830;28;20273;-61
2024/01/17 06:05:30;;;;;;;0.47;0.47;;;5.60;99.90;;;;;;5071299;28;20227;-61
2024/01/17 06:07:56;;;;;;;0.40;0.40;;;5.50;99.90;;;;;;5074047;28;20169;-61
2024/01/17 06:10:23;;;;;;;0.40;0.40;;;5.50;99.90;;;;;;5075008;28;20256;-61
2024/01/17 06:12:50;;;;;;;0.40;0.40;;;5.40;99.90;;;;;;5075080;28;20192;-60
2024/01/17 06:15:17;;;;;;;0.40;0.40;;;5.40;99.90;;;;;;5075322;28;20260;-60
2024/01/17 06:17:43;;;;;;;0.40;0.40;;;5.40;99.90;;;;;;5075126;28;20223;-60
2024/01/17 06:20:11;;;;;;;0.40;0.40;;;5.50;99.90;;;;;;5075045;28;20205;-58
2024/01/17 06:22:37;;;;;;;0.98;0.60;;;5.50;99.90;;;;;;5056745;28;20196;-60
2024/01/17 06:25:07;;;;;;;0.40;0.40;;;5.50;99.90;;;;;;5056873;28;20269;-60
2024/01/17 06:27:33;;;;;;;0.82;0.82;;;5.60;99.90;;;;;;5075081;28;20836;-60
2024/01/17 06:29:59;;;;;;;0.40;0.40;;;5.60;99.90;;;;;;5074832;28;20169;-60
2024/01/17 06:32:24;;;;;;;2.63;1.10;;;5.50;99.90;;;;;;5074549;28;20189;-60
2024/01/17 06:34:50;;;;;;;1.57;0.90;;;5.30;99.90;;;;;;5074814;28;20169;-60
2024/01/17 06:37:16;;;;;;;0.50;0.50;;;5.30;99.90;;;;;;5074560;28;20197;-60
2024/01/17 06:39:43;;;;;;;0.87;0.87;;;5.30;99.90;;;;;;5074580;28;20185;-60
2024/01/17 06:42:09;;;;;;;0.80;0.77;;;5.20;99.90;;;;;;5074237;28;20201;-60
2024/01/17 06:44:35;;;;;;;2.33;2.17;;;5.10;99.90;;;;;;5074702;28;20646;-60
2024/01/17 06:47:01;;;;;;;0.30;0.30;;;5.00;99.90;;;;;;5074682;28;20181;-60
2024/01/17 06:49:27;;;;;;;0.50;0.50;;;5.00;99.90;;;;;;5093125;28;20630;-60
2024/01/17 06:51:52;;;;;;;0.40;0.40;;;4.60;99.90;;;;;;5094363;28;20185;-60
2024/01/17 06:54:18;;;;;;;0.57;0.57;;;4.50;99.90;;;;;;5094621;28;20169;-60
2024/01/17 06:56:44;;;;;;;0.40;0.40;;;4.50;99.90;;;;;;5076561;28;20292;-60
2024/01/17 06:59:10;;;;;;;0.90;0.90;;;4.60;99.90;;;;;;5094742;28;20173;-60
2024/01/17 07:01:37;;;;;;;0.40;0.40;;;4.60;99.90;;;;;;5094287;28;20668;-60
2024/01/17 07:04:03;;;;;;;0.30;0.30;;;4.60;99.90;;;;;;5094616;28;20322;-59
2024/01/17 07:06:29;;;;;;;0.40;0.40;;;4.70;99.90;;;;;;5094457;28;20169;-60
2024/01/17 07:08:55;;;;;;;0.40;0.40;;;4.80;99.90;;;;;;5094069;28;20531;-60
2024/01/17 07:11:20;;;;;;;0.40;0.40;;;4.90;99.90;;;;;;5093981;28;20192;-60
2024/01/17 07:13:46;;;;;;;2.57;0.50;;;4.90;99.90;;;;;;5094349;28;20781;-58
2024/01/17 07:16:15;;;;;;;0.50;0.40;;;5.00;99.90;;;;;;5094265;28;20208;-60
2024/01/17 07:18:41;;;;;;;0.50;0.50;;;5.00;99.90;;;;;;5094316;28;20307;-60
2024/01/17 07:21:07;;;;;;;0.40;0.40;;;5.10;99.90;;;;;;5093036;28;20661;-60
2024/01/17 07:23:38;;;;;;;1.23;0.93;;;5.10;99.90;;;;;;5093949;28;20165;-59
2024/01/17 07:26:04;;;;;;;0.45;0.45;;;5.20;99.90;;;;;;5094218;28;20205;-60
2024/01/17 07:28:29;;;;;;;1.35;1.35;;;5.20;99.90;;;;;;5094211;28;20169;-60
2024/01/17 07:30:55;;;;;;;0.90;0.90;;;5.20;99.90;;;;;;5093812;28;20212;-60
2024/01/17 07:33:21;;;;;;;0.45;0.45;;;5.20;99.90;;;;;;5093750;28;20780;-60
2024/01/17 07:35:47;;;;;;;0.77;0.77;;;5.20;99.90;;;;;;5093079;28;20206;-60
2024/01/17 07:38:14;;;;;;;0.95;0.65;;;5.20;99.90;;;;;;5093873;28;20169;-60
2024/01/17 07:40:40;;;;;;;0.40;0.40;;;5.10;99.90;;;;;;5093660;28;20588;-60
2024/01/17 07:43:06;;;;;;;0.50;0.50;;;5.10;99.90;;;;;;5093448;28;20220;-60
2024/01/17 07:45:31;;;;;;;0.70;0.70;;;5.10;99.90;;;;;;5093729;28;20173;-60
2024/01/17 07:47:57;;;;;;;0.40;0.40;;;5.10;99.90;;;;;;5093722;28;20180;-60
2024/01/17 07:50:23;;;;;;;0.60;0.60;;;5.10;99.90;;;;;;5093317;28;20263;-61
2024/01/17 07:52:49;;;;;;;1.20;1.10;;;5.10;99.90;;;;;;5093583;28;20193;-60
2024/01/17 07:55:15;;;;;;;2.10;1.90;;;5.10;99.90;;;;;;5093549;28;20723;-60
2024/01/17 07:57:41;;;;;;;1.02;0.93;;;5.00;99.90;;;;;;5093526;28;20316;-60
2024/01/17 08:00:07;;;;;;;0.67;0.67;;;5.00;99.90;;;;;;5093407;28;20201;-60
2024/01/17 08:02:32;;;;;;;0.65;0.65;;;5.10;99.90;;;;;;5093093;28;20191;-60
2024/01/17 08:04:58;;;;;;;2.63;1.87;;;5.10;99.90;;;;;;5093234;28;20165;-60
2024/01/17 08:07:25;;;;;;;1.47;1.37;;;5.10;99.90;;;;;;5093567;28;20168;-61
2024/01/17 08:09:54;;;;;;;1.17;1.15;;;4.90;99.90;;;;;;5093172;28;20180;-61
2024/01/17 08:12:20;;;;;;;2.78;1.75;;;5.00;99.90;;;;;;5092907;28;20201;-61
2024/01/17 08:14:48;;;;;;;3.28;2.97;;;5.00;99.90;;;;;;5093037;28;20251;-61
2024/01/17 08:17:14;;;;;;;2.35;2.25;;;5.10;99.90;;;;;;5093069;28;20204;-61
2024/01/17 08:19:40;;;;;;;1.20;1.10;;;5.10;99.90;;;;;;5092935;28;20654;-61
2024/01/17 08:22:06;;;;;;;0.63;0.63;;;5.10;99.90;;;;;;5092664;28;20196;-61
2024/01/17 08:24:32;;;;;;;9.40;8.90;;;5.10;99.90;;;;;;5092971;28;20411;-61
2024/01/17 08:26:58;;;;;;;0.98;0.98;;;5.20;99.90;;;;;;5092707;28;20194;-61
2024/01/17 08:29:24;;;;;;;0.60;0.60;;;5.20;99.90;;;;;;5092093;28;20173;-60
2024/01/17 08:31:50;;;;;;;1.30;1.20;;;5.20;99.90;;;;;;5092465;28;20200;-61
2024/01/17 08:34:15;;;;;;;0.40;0.40;;;5.10;99.90;;;;;;5092661;28;20307;-61
2024/01/17 08:36:41;;;;;;;3.73;0.83;;;5.10;99.90;;;;;;5092657;28;20446;-61
2024/01/17 08:39:07;;;;;;;3.40;3.17;;;5.10;99.90;;;;;;5092706;28;20171;-61
2024/01/17 08:41:33;;;;;;;3.90;2.43;;;5.00;99.90;;;;;;5092237;28;20200;-61
2024/01/17 08:44:02;;;;;;;1.20;1.20;;;5.10;99.90;;;;;;5092692;28;20205;-65
2024/01/17 08:46:28;;;;;;;1.67;1.58;;;5.00;99.90;;;;;;5088794;28;20190;-62
2024/01/17 08:48:54;;;;;;;0.85;0.85;;;5.10;99.90;;;;;;5072190;28;20165;-60
2024/01/17 08:51:21;;;;;;;1.57;1.57;;;5.20;99.90;;;;;;5072888;28;20199;-61
2024/01/17 08:53:47;;;;;;;2.75;1.65;;;5.20;99.90;;;;;;5072800;28;20235;-60
2024/01/17 08:56:14;;;;;;;0.87;0.87;;;5.10;99.90;;;;;;5072128;28;20226;-61
2024/01/17 08:58:42;;;;;;;1.27;0.88;;;5.10;99.90;;;;;;5072075;28;20833;-61
2024/01/17 09:01:08;;;;;;;0.35;0.35;;;5.20;99.90;;;;;;5071730;28;20825;-62
2024/01/17 09:03:34;;;;;;;0.35;0.35;;;5.30;99.90;;;;;;5071821;28;20249;-62
2024/01/17 09:06:00;;;;;;;0.40;0.40;;;5.30;99.90;;;;;;5072150;28;20210;-62
2024/01/17 09:08:26;;;;;;;0.70;0.70;;;5.20;99.90;;;;;;5072018;28;20619;-60
2024/01/17 09:10:52;;;;;;;0.57;0.57;;;5.10;99.90;;;;;;5071639;28;20936;-61
2024/01/17 09:13:17;;;;;;;0.93;0.93;;;5.20;99.90;;;;;;5071680;28;20555;-60
2024/01/17 09:15:43;;;;;;;0.80;0.80;;;5.20;99.90;;;;;;5071678;28;20204;-60
2024/01/17 09:18:08;;;;;;;1.07;0.90;;;5.20;99.90;;;;;;5072237;28;20239;-63
2024/01/17 09:20:34;;;;;;;5.37;3.13;;;5.30;99.90;;;;;;5071609;28;20250;-60
2024/01/17 09:23:00;;;;;;;5.72;4.63;;;6.00;99.90;;;;;;5071489;28;20200;-61
2024/01/17 09:25:26;;;;;;;7.93;3.03;;;6.30;99.90;;;;;;5071700;28;20639;-60
2024/01/17 09:27:51;;;;;;;5.70;3.50;;;6.40;99.70;;;;;;5071617;28;20210;-61
2024/01/17 09:30:17;;;;;;;1.27;1.17;;;6.20;99.20;;;;;;5071276;28;20199;-61
2024/01/17 09:32:47;;;;;;;2.70;2.60;;;6.10;99.40;;;;;;5071152;28;20277;-61
2024/01/17 09:35:14;;;;;;;4.28;1.60;;;6.10;99.50;;;;;;5071719;28;20215;-60
2024/01/17 09:37:39;;;;;;;0.40;0.40;;;6.00;99.70;;;;;;5071543;28;20173;-61
2024/01/17 09:40:06;;;;;;;1.00;1.00;;;5.90;99.70;;;;;;5071487;28;20636;-61
2024/01/17 09:42:35;;;;;;;0.50;0.45;;;5.90;99.80;;;;;;5070632;28;20199;-61
2024/01/17 09:45:02;;;;;;;0.65;0.65;;;5.90;99.90;;;;;;5071346;28;20279;-60
2024/01/17 09:47:31;;;;;;;1.92;0.88;;;5.90;99.90;;;;;;5071455;28;20663;-61
2024/01/17 09:49:56;;;;;;;0.63;0.63;;;5.90;99.90;;;;;;5071355;28;20181;-60
2024/01/17 09:52:23;;;;;;;0.90;0.90;;;5.90;99.90;;;;;;5071066;28;20235;-61
2024/01/17 09:54:51;;;;;;;1.33;1.33;;;5.90;99.90;;;;;;5071455;28;20174;-61
2024/01/17 09:57:22;;;;;;;3.05;1.05;;;5.90;99.90;;;;;;5071312;28;20204;-61
2024/01/17 10:00:00;;;;;;;0.57;0.57;;;5.90;99.90;;;;;;5071383;28;20385;-61
2024/01/17 10:02:27;;;;;;;0.40;0.40;;;5.90;99.90;;;;;;5070894;28;20701;-60
2024/01/17 10:04:55;;;;;;;0.30;0.30;;;6.00;99.90;;;;;;5071337;28;20172;-61
2024/01/17 10:07:20;;;;;;;0.40;0.40;;;6.00;99.90;;;;;;5071308;28;20234;-61
2024/01/17 10:09:46;;;;;;;0.70;0.70;;;6.00;99.90;;;;;;5071342;28;20574;-61
2024/01/17 10:12:13;;;;;;;0.40;0.40;;;6.00;99.90;;;;;;5070830;28;20578;-62
2024/01/17 10:14:40;;;;;;;0.50;0.50;;;6.00;99.90;;;;;;5073093;28;20405;-61
2024/01/17 10:17:06;;;;;;;2.83;2.03;;;6.00;99.90;;;;;;5071112;28;20211;-61
2024/01/17 10:19:32;;;;;;;1.80;1.63;;;5.90;99.90;;;;;;5071196;28;20178;-61
2024/01/17 10:22:02;;;;;;;0.60;0.60;;;6.00;99.90;;;;;;5070900;28;20422;-61
2024/01/17 10:24:32;;;;;;;3.03;1.60;;;6.00;99.90;;;;;;5071011;28;20180;-61
2024/01/17 10:27:01;;;;;;;1.10;1.08;;;6.10;99.90;;;;;;5071295;28;20226;-61
2024/01/17 10:29:29;;;;;;;0.80;0.80;;;6.10;99.90;;;;;;5070952;28;20560;-61
2024/01/17 10:32:01;;;;;;;1.92;1.77;;;6.10;99.90;;;;;;5070650;28;20191;-61
2024/01/17 10:34:30;;;;;;;1.85;1.75;;;6.10;99.90;;;;;;5071544;28;20181;-62
2024/01/17 10:36:57;;;;;;;1.80;1.70;;;6.20;99.90;;;;;;5070845;28;20203;-61
2024/01/17 10:39:24;;;;;;;1.20;1.17;;;6.20;99.90;;;;;;5070811;28;20268;-61
2024/01/17 10:41:54;;;;;;;0.93;0.73;;;6.20;99.90;;;;;;5070467;28;20212;-61
2024/01/17 10:44:21;;;;;;;8.43;7.80;;;6.10;99.90;;;;;;5070984;28;20171;-61
2024/01/17 10:46:50;;;;;;;8.48;5.28;;;6.00;99.90;;;;;;5070931;28;20652;-61
2024/01/17 10:49:17;;;;;;;2.95;2.75;;;6.00;99.90;;;;;;5070831;28;20182;-61
2024/01/17 10:51:48;;;;;;;2.92;2.83;;;6.10;99.90;;;;;;5070479;28;20282;-61
2024/01/17 10:54:16;;;;;;;2.67;2.47;;;6.10;99.90;;;;;;5070864;28;20172;-61
2024/01/17 10:56:50;;;;;;;1.85;1.75;;;6.10;99.90;;;;;;5074250;28;20292;-62
2024/01/17 10:59:19;;;;;;;1.88;1.42;;;6.00;99.90;;;;;;5074387;28;20192;-61
2024/01/17 11:01:49;;;;;;;4.30;3.28;;;6.10;99.90;;;;;;5074050;28;20253;-61
2024/01/17 11:04:20;;;;;;;4.07;3.80;;;6.10;99.90;;;;;;5074291;28;20172;-61
2024/01/17 11:06:48;;;;;;;2.95;2.85;;;6.10;99.90;;;;;;5074342;28;20175;-65
2024/01/17 11:09:14;;;;;;;1.48;1.38;;;6.10;99.90;;;;;;5074246;28;20166;-62
2024/01/17 11:11:42;;;;;;;1.58;1.45;;;6.10;99.90;;;;;;5073874;28;20207;-61
2024/01/17 11:14:08;;;;;;;2.25;2.15;;;6.10;99.90;;;;;;5074157;28;20207;-62
2024/01/17 11:16:35;;;;;;;1.75;1.65;;;6.20;99.90;;;;;;5073940;28;20208;-63
2024/01/17 11:19:02;;;;;;;10.65;6.13;;;6.20;99.90;;;;;;5074095;28;20183;-63
2024/01/17 11:21:30;;;;;;;4.40;3.95;;;6.30;99.90;;;;;;5073698;28;20232;-62
2024/01/17 11:24:10;;;;;;;5.32;4.88;;;6.40;99.90;;;;;;5073995;28;20166;-63
2024/01/17 11:26:44;;;;;;;8.38;7.50;;;6.40;99.90;;;;;;5073948;28;20185;-62
2024/01/17 11:29:31;;;;;;;5.80;5.32;;;6.40;99.90;;;;;;5073728;28;20657;-63
2024/01/17 11:32:20;;;;;;;2.55;2.08;;;6.50;99.90;;;;;;5073533;28;20743;-62
2024/01/17 11:34:49;;;;;;;3.80;2.35;;;6.50;99.90;;;;;;5073998;28;20181;-63
2024/01/17 11:37:33;;;;;;;3.30;1.52;;;6.50;99.90;;;;;;5074115;28;20284;-62
2024/01/17 11:40:00;;;;;;;1.50;1.42;;;6.40;99.90;;;;;;5073642;28;20176;-62
2024/01/17 11:42:26;;;;;;;0.85;0.85;;;6.40;99.90;;;;;;5094445;22;20251;-56
2024/01/17 11:44:52;;;;;;;3.10;3.00;;;6.50;99.90;;;;;;5073266;28;20212;-56
2024/01/17 11:47:20;;;;;;;2.45;2.25;;;6.60;99.90;;;;;;5073615;28;20208;-56
2024/01/17 11:49:46;;;;;;;11.23;10.13;;;6.70;99.90;;;;;;5073596;28;20666;-62
2024/01/17 11:52:30;;;;;;;7.43;6.80;;;6.80;99.90;;;;;;5073003;28;20287;-56
2024/01/17 11:54:55;;;;;;;3.53;3.33;;;6.80;99.90;;;;;;5073760;28;20188;-56
2024/01/17 11:57:23;;;;;;;4.90;4.47;;;6.70;99.90;;;;;;5073730;28;20200;-54
2024/01/17 12:00:12;;;;;;;4.20;3.80;;;6.80;99.90;;;;;;5073390;28;20182;-57
2024/01/17 12:02:38;;;;;;;1.70;1.42;;;6.80;99.90;;;;;;5073190;28;20197;-56
2024/01/17 12:05:05;;;;;;;2.07;1.73;;;6.80;99.90;;;;;;5073486;28;20237;-56
2024/01/17 12:07:35;;;;;;;2.60;1.52;;;6.90;99.90;;;;;;5072933;28;20250;-56
2024/01/17 12:10:08;;;;;;;3.00;0.73;;;6.90;99.90;;;;;;5073172;28;20180;-56
2024/01/17 12:12:34;;;;;;;0.90;0.85;;;7.10;99.90;;;;;;5072765;28;20204;-56
2024/01/17 12:15:00;;;;;;;1.73;1.63;;;7.10;99.90;;;;;;5072738;28;20669;-56
2024/01/17 12:17:25;;;;;;;0.37;0.37;;;7.20;99.90;;;;;;5073002;28;20546;-62
2024/01/17 12:19:52;;;;;;;2.17;1.60;;;7.30;99.90;;;;;;5073241;28;20257;-56
2024/01/17 12:22:17;;;;;;;2.35;1.88;;;7.30;99.90;;;;;;5072654;28;20250;-56
2024/01/17 12:24:44;;;;;;;1.47;1.37;;;7.30;99.90;;;;;;5072854;28;20176;-56
2024/01/17 12:27:12;;;;;;;0.63;0.63;;;7.20;99.90;;;;;;5072898;28;20176;-54
2024/01/17 12:29:38;;;;;;;3.00;2.80;;;7.10;99.90;;;;;;5072630;28;20250;-56
2024/01/17 12:32:04;;;;;;;3.38;3.08;;;7.20;99.90;;;;;;5072502;28;20287;-56
2024/01/17 12:34:29;;;;;;;0.90;0.90;;;7.10;99.90;;;;;;5072186;28;20607;-57
2024/01/17 12:36:55;;;;;;;28.40;23.70;;;7.10;99.90;;;;;;5072912;28;20449;-55
2024/01/17 12:39:21;;;;;;;9.67;9.00;;;7.10;99.90;;;;;;5072436;28;20223;-54
2024/01/17 12:41:47;;;;;;;3.60;2.73;;;7.20;99.90;;;;;;5072124;28;20590;-56
2024/01/17 12:44:13;;;;;;;1.43;1.43;;;7.40;99.90;;;;;;5072453;28;20789;-56
2024/01/17 12:46:39;;;;;;;2.08;1.98;;;7.40;99.90;;;;;;5071909;28;20680;-56
2024/01/17 12:49:05;;;;;;;1.63;1.60;;;7.40;99.90;;;;;;5072374;28;20191;-56
2024/01/17 12:51:32;;;;;;;1.87;1.77;;;7.40;99.90;;;;;;5071988;28;20218;-55
2024/01/17 12:53:57;;;;;;;3.20;2.88;;;7.50;99.90;;;;;;5072213;28;20194;-56